Time;durP1;ratioP1;P1;durP2;ratioP2;P2;SDS_P1;SDS_P2;PMS_P1;PMS_P2;Temp;Humidity;BMP_temperature;BMP_pressure;BME280_temperature;BME280_humidity;BME280_pressure;Samples;Min_cycle;Max_cycle;Signal;HPM_P1;HPM_P2
2023/05/07 00:01:45;;;;;;;;;1.00;1.00;;;;;18.25;67.35;100688.44;4955822;28;45441;-58
2023/05/07 00:04:11;;;;;;;;;0.00;0.00;;;;;18.28;67.21;100698.88;4943313;28;52579;-61
2023/05/07 00:06:36;;;;;;;;;0.00;0.00;;;;;18.28;67.39;100696.22;4958946;28;45447;-58
2023/05/07 00:09:02;;;;;;;;;1.00;1.00;;;;;18.28;67.02;100690.06;4958443;28;50519;-58
2023/05/07 00:11:28;;;;;;;;;3.33;2.00;;;;;18.24;67.62;100683.22;4955023;28;45590;-58
2023/05/07 00:13:54;;;;;;;;;1.00;1.00;;;;;18.27;67.33;100691.88;4953479;28;45558;-58
2023/05/07 00:16:19;;;;;;;;;0.00;0.00;;;;;18.26;67.68;100689.28;4958602;28;45471;-56
2023/05/07 00:18:44;;;;;;;;;0.50;0.50;;;;;18.23;68.02;100687.69;4958947;28;45510;-57
2023/05/07 00:21:10;;;;;;;;;1.00;1.00;;;;;18.24;67.50;100694.75;4957223;28;45486;-58
2023/05/07 00:23:36;;;;;;;;;1.33;1.33;;;;;18.23;67.49;100700.16;4951840;28;45921;-57
2023/05/07 00:26:01;;;;;;;;;0.67;0.67;;;;;18.18;66.93;100687.13;4958712;28;45417;-58
2023/05/07 00:28:26;;;;;;;;;1.00;1.00;;;;;18.22;67.53;100711.75;4958329;28;46210;-58
2023/05/07 00:30:52;;;;;;;;;0.00;0.00;;;;;18.18;67.62;100710.25;4957713;28;45459;-58
2023/05/07 00:33:17;;;;;;;;;1.00;0.67;;;;;18.21;67.39;100713.53;4950075;28;45513;-58
2023/05/07 00:35:43;;;;;;;;;1.00;1.00;;;;;18.19;67.93;100715.47;4957602;28;45411;-58
2023/05/07 00:38:08;;;;;;;;;1.00;1.00;;;;;18.20;67.82;100703.00;4953614;28;45395;-58
2023/05/07 00:40:34;;;;;;;;;1.00;1.00;;;;;18.20;67.60;100703.88;4958633;28;45432;-58
2023/05/07 00:42:59;;;;;;;;;1.33;1.33;;;;;18.22;68.10;100699.31;4950194;28;46160;-58
2023/05/07 00:45:28;;;;;;;;;1.00;1.00;;;;;18.23;67.81;100700.16;4943147;28;45444;-58
2023/05/07 00:47:59;;;;;;;;;1.00;1.00;;;;;18.23;67.47;100700.16;4958558;28;45432;-58
2023/05/07 00:50:26;;;;;;;;;2.00;2.00;;;;;18.22;67.58;100698.44;4958182;28;45539;-58
2023/05/07 00:52:51;;;;;;;;;1.00;1.00;;;;;18.16;67.49;100697.06;4951203;28;45512;-58
2023/05/07 00:55:17;;;;;;;;;0.00;0.00;;;;;18.14;67.61;100690.97;4953802;28;45330;-58
2023/05/07 00:57:44;;;;;;;;;0.00;0.00;;;;;18.10;67.20;100690.28;4956960;28;45422;-58
2023/05/07 01:00:12;;;;;;;;;0.00;0.00;;;;;18.12;68.06;100692.88;4958175;28;45462;-58
2023/05/07 01:02:38;;;;;;;;;0.67;0.67;;;;;18.12;67.96;100694.69;4947406;28;46030;-57
2023/05/07 01:05:07;;;;;;;;;0.00;0.00;;;;;18.09;68.20;100691.25;4957976;28;45449;-58
2023/05/07 01:07:34;;;;;;;;;0.00;0.00;;;;;18.06;67.99;100675.50;4957999;28;45598;-58
2023/05/07 01:10:00;;;;;;;;;1.00;1.00;;;;;18.05;68.22;100676.47;4958678;28;45558;-58
2023/05/07 01:12:27;;;;;;;;;0.67;0.67;;;;;18.04;68.26;100669.41;4951612;28;45461;-58
2023/05/07 01:14:53;;;;;;;;;0.00;0.00;;;;;18.05;68.62;100670.25;4956783;28;45467;-58
2023/05/07 01:17:19;;;;;;;;;0.00;0.00;;;;;17.90;68.10;100648.19;4958117;28;45414;-58
2023/05/07 01:19:44;;;;;;;;;0.67;0.67;;;;;18.03;68.37;100666.88;4957936;28;45597;-58
2023/05/07 01:22:11;;;;;;;;;0.67;0.67;;;;;18.05;68.69;100664.94;4953134;28;52318;-58
2023/05/07 01:24:38;;;;;;;;;0.00;0.00;;;;;18.03;68.10;100654.41;4953101;28;45534;-58
2023/05/07 01:27:03;;;;;;;;;1.00;1.00;;;;;18.05;68.18;100656.94;4957102;28;45419;-58
2023/05/07 01:29:29;;;;;;;;;1.00;1.00;;;;;18.05;68.24;100662.28;4951546;28;45623;-58
2023/05/07 01:31:57;;;;;;;;;0.67;0.67;;;;;18.06;67.92;100661.34;4955369;28;45356;-58
2023/05/07 01:34:26;;;;;;;;;0.33;0.33;;;;;18.03;68.10;100662.38;4949742;28;45471;-56
2023/05/07 01:36:53;;;;;;;;;1.00;1.00;;;;;18.05;68.11;100659.59;4956328;28;45520;-58
2023/05/07 01:39:18;;;;;;;;;0.33;0.33;;;;;18.02;68.35;100650.00;4956343;28;45586;-58
2023/05/07 01:41:44;;;;;;;;;0.67;0.67;;;;;18.06;68.05;100658.69;4956403;28;45432;-58
2023/05/07 01:44:12;;;;;;;;;1.00;1.00;;;;;18.07;68.16;100652.38;4946201;28;45577;-58
2023/05/07 01:46:37;;;;;;;;;1.00;1.00;;;;;18.07;68.36;100663.03;4952740;28;45436;-58
2023/05/07 01:49:03;;;;;;;;;0.67;0.67;;;;;18.08;67.98;100659.41;4954373;28;45581;-58
2023/05/07 01:51:29;;;;;;;;;2.33;1.00;;;;;18.02;68.04;100650.00;4953034;28;45380;-58
2023/05/07 01:53:55;;;;;;;;;1.00;1.00;;;;;18.05;68.07;100659.59;4948729;28;45632;-58
2023/05/07 01:56:20;;;;;;;;;0.67;0.67;;;;;18.06;68.36;100659.53;4955305;28;45498;-58
2023/05/07 01:58:46;;;;;;;;;1.00;1.00;;;;;18.07;68.23;100669.19;4956533;28;45391;-58
2023/05/07 02:01:13;;;;;;;;;0.75;0.75;;;;;18.06;68.39;100670.16;4957086;28;47135;-58
2023/05/07 02:03:39;;;;;;;;;1.00;1.00;;;;;18.09;68.21;100674.44;4953700;28;45486;-58
2023/05/07 02:06:04;;;;;;;;;1.00;1.00;;;;;18.09;68.29;100677.09;4957019;28;45411;-58
2023/05/07 02:08:30;;;;;;;;;0.75;0.75;;;;;18.09;68.37;100671.78;4956472;28;45417;-58
2023/05/07 02:10:56;;;;;;;;;0.00;0.00;;;;;18.08;68.31;100673.59;4957680;28;46159;-58
2023/05/07 02:13:22;;;;;;;;;0.67;0.67;;;;;18.06;68.75;100662.19;4953002;28;45519;-57
2023/05/07 02:15:50;;;;;;;;;1.25;1.25;;;;;18.06;68.44;100664.84;4957148;28;45433;-58
2023/05/07 02:18:16;;;;;;;;;1.00;1.00;;;;;18.06;68.81;100661.34;4956340;28;45439;-58
2023/05/07 02:20:42;;;;;;;;;2.75;1.00;;;;;18.05;69.03;100676.47;4955862;28;46258;-59
2023/05/07 02:23:07;;;;;;;;;0.50;0.50;;;;;18.05;69.28;100667.59;4950635;28;45470;-58
2023/05/07 02:25:33;;;;;;;;;1.67;0.33;;;;;18.02;68.98;100665.13;4957029;28;45572;-57
2023/05/07 02:27:58;;;;;;;;;0.67;0.67;;;;;17.98;69.14;100656.50;4950845;28;45622;-58
2023/05/07 02:30:25;;;;;;;;;1.00;1.00;;;;;18.05;68.94;100671.13;4955006;28;45998;-56
2023/05/07 02:32:50;;;;;;;;;0.33;0.33;;;;;18.05;69.03;100680.91;4956718;28;45457;-58
2023/05/07 02:35:15;;;;;;;;;0.00;0.00;;;;;18.04;69.07;100673.88;4957051;28;45458;-58
2023/05/07 02:37:41;;;;;;;;;2.00;2.00;;;;;18.03;69.39;100673.03;4956864;28;45668;-58
2023/05/07 02:40:06;;;;;;;;;0.33;0.33;;;;;18.02;69.30;100675.78;4953172;28;46125;-58
2023/05/07 02:42:32;;;;;;;;;0.67;0.67;;;;;17.99;69.26;100676.84;4947384;28;45871;-58
2023/05/07 02:44:57;;;;;;;;;0.00;0.00;;;;;18.03;69.25;100678.34;4956665;28;45443;-58
2023/05/07 02:47:22;;;;;;;;;1.00;1.00;;;;;17.99;69.61;100676.84;4956775;28;45569;-58
2023/05/07 02:49:48;;;;;;;;;1.00;1.00;;;;;17.91;69.49;100668.50;4955203;28;46124;-58
2023/05/07 02:52:13;;;;;;;;;1.00;1.00;;;;;17.98;69.10;100679.63;4943151;28;45386;-58
2023/05/07 02:54:38;;;;;;;;;1.00;1.00;;;;;17.96;69.04;100676.19;4954457;28;45443;-58
2023/05/07 02:57:04;;;;;;;;;0.00;0.00;;;;;18.01;68.63;100685.59;4955155;28;45570;-58
2023/05/07 02:59:29;;;;;;;;;0.67;0.67;;;;;18.01;68.48;100687.41;4956247;28;46005;-58
2023/05/07 03:01:54;;;;;;;;;1.00;1.00;;;;;17.96;68.66;100677.03;4947262;28;45625;-58
2023/05/07 03:04:20;;;;;;;;;2.67;0.00;;;;;17.97;68.61;100680.53;4955067;28;45419;-58
2023/05/07 03:06:45;;;;;;;;;0.33;0.33;;;;;17.91;68.51;100671.16;4956636;28;45470;-58
2023/05/07 03:09:11;;;;;;;;;0.00;0.00;;;;;17.93;68.92;100676.41;4956037;28;45406;-58
2023/05/07 03:11:36;;;;;;;;;1.00;1.00;;;;;17.86;68.44;100679.44;4956260;28;45553;-58
2023/05/07 03:14:02;;;;;;;;;2.00;0.00;;;;;17.88;68.70;100680.19;4955334;28;45395;-57
2023/05/07 03:16:27;;;;;;;;;1.00;0.33;;;;;17.88;68.67;100669.56;4956247;28;45383;-57
2023/05/07 03:18:53;;;;;;;;;0.50;0.50;;;;;17.84;68.70;100660.06;4955934;28;46161;-58
2023/05/07 03:21:18;;;;;;;;;0.00;0.00;;;;;17.88;69.06;100669.56;4955681;28;45376;-58
2023/05/07 03:23:44;;;;;;;;;1.67;1.67;;;;;17.85;68.73;100661.78;4949104;28;45335;-58
2023/05/07 03:26:09;;;;;;;;;2.67;1.67;;;;;17.86;69.04;100668.78;4956098;28;45500;-58
2023/05/07 03:28:34;;;;;;;;;0.00;0.00;;;;;17.88;69.17;100668.69;4956197;28;45711;-58
2023/05/07 03:31:00;;;;;;;;;0.33;0.33;;;;;17.84;69.36;100672.53;4947059;28;45446;-58
2023/05/07 03:33:27;;;;;;;;;0.67;0.67;;;;;17.85;68.94;100668.91;4953363;28;45546;-58
2023/05/07 03:35:52;;;;;;;;;1.00;0.00;;;;;17.87;68.76;100673.19;4954738;28;45455;-58
2023/05/07 03:38:17;;;;;;;;;0.00;0.00;;;;;17.85;68.90;100677.72;4955799;28;45555;-58
2023/05/07 03:40:43;;;;;;;;;0.00;0.00;;;;;17.84;69.12;100676.03;4959276;28;45530;-58
2023/05/07 03:43:08;;;;;;;;;0.00;0.00;;;;;17.82;69.08;100674.44;4949272;28;45493;-58
2023/05/07 03:45:33;;;;;;;;;0.00;0.00;;;;;17.79;68.89;100686.13;4957983;28;45407;-58
2023/05/07 03:47:59;;;;;;;;;0.00;0.00;;;;;17.75;68.60;100689.88;4958822;28;49976;-58
2023/05/07 03:50:24;;;;;;;;;0.00;0.00;;;;;17.75;68.99;100695.19;4953720;28;45661;-58
2023/05/07 03:52:49;;;;;;;;;0.00;0.00;;;;;17.79;69.02;100698.56;4948064;28;45605;-58
2023/05/07 03:55:15;;;;;;;;;0.50;0.00;;;;;17.74;69.43;100687.34;4957551;28;45591;-58
2023/05/07 03:57:40;;;;;;;;;0.00;0.00;;;;;17.75;69.34;100679.25;4958814;28;54539;-58
2023/05/07 04:00:06;;;;;;;;;0.00;0.00;;;;;17.76;69.23;100685.41;4959178;28;45336;-58
2023/05/07 04:02:33;;;;;;;;;0.00;0.00;;;;;17.72;69.57;100676.78;4954839;28;45372;-58
2023/05/07 04:04:58;;;;;;;;;0.00;0.00;;;;;17.76;69.50;100680.09;4959068;28;45382;-57
2023/05/07 04:07:23;;;;;;;;;1.00;1.00;;;;;17.78;69.73;100688.84;4958732;28;45446;-58
2023/05/07 04:09:49;;;;;;;;;0.33;0.33;;;;;17.78;69.53;100688.84;4964866;28;45454;-58
2023/05/07 04:12:14;;;;;;;;;0.00;0.00;;;;;17.79;69.77;100691.44;4958258;28;45363;-59
2023/05/07 04:14:40;;;;;;;;;1.00;0.00;;;;;17.79;69.19;100688.78;4959169;28;45666;-59
2023/05/07 04:17:06;;;;;;;;;0.33;0.33;;;;;17.81;69.37;100696.66;4953052;28;61582;-58
2023/05/07 04:19:33;;;;;;;;;0.00;0.00;;;;;17.80;69.82;100694.94;4958745;28;45599;-58
2023/05/07 04:21:58;;;;;;;;;0.33;0.33;;;;;17.81;69.51;100699.31;4957280;28;45502;-58
2023/05/07 04:24:23;;;;;;;;;0.00;0.00;;;;;17.78;69.69;100699.47;4956149;28;56058;-58
2023/05/07 04:26:50;;;;;;;;;0.00;0.00;;;;;17.78;69.60;100700.31;4958598;28;45505;-58
2023/05/07 04:29:16;;;;;;;;;0.00;0.00;;;;;17.79;69.64;100706.56;4958763;28;45551;-58
2023/05/07 04:31:44;;;;;;;;;0.00;0.00;;;;;17.80;69.83;100706.44;4959005;28;45545;-57
2023/05/07 04:34:10;;;;;;;;;0.00;0.00;;;;;17.82;69.46;100709.88;4954011;28;45506;-58
2023/05/07 04:36:37;;;;;;;;;0.00;0.00;;;;;17.83;69.42;100708.06;4958735;28;46189;-58
2023/05/07 04:39:02;;;;;;;;;0.75;0.75;;;;;17.82;69.35;100709.00;4958378;28;45465;-58
2023/05/07 04:41:28;;;;;;;;;0.67;0.67;;;;;17.82;69.57;100717.00;4957343;28;45756;-58
2023/05/07 04:43:53;;;;;;;;;0.67;0.67;;;;;17.81;69.41;100718.81;4952581;28;48452;-57
2023/05/07 04:46:18;;;;;;;;;1.33;0.00;;;;;17.83;69.37;100724.00;4957873;28;50384;-58
2023/05/07 04:48:44;;;;;;;;;0.00;0.00;;;;;17.82;69.73;100724.97;4958435;28;45514;-58
2023/05/07 04:51:28;;;;;;;;;0.00;0.00;;;;;17.80;69.73;100724.22;4957929;28;45487;-60
2023/05/07 04:53:54;;;;;;;;;0.50;0.50;;;;;17.79;70.07;100720.72;4952105;28;45514;-58
2023/05/07 04:56:20;;;;;;;;;0.00;0.00;;;;;17.82;69.55;100719.66;4958037;28;45422;-58
2023/05/07 04:58:45;;;;;;;;;0.00;0.00;;;;;17.81;69.18;100731.22;4957801;28;45516;-58
2023/05/07 05:01:11;;;;;;;;;1.00;1.00;;;;;17.78;69.53;100726.94;4958277;28;45460;-57
2023/05/07 05:03:36;;;;;;;;;0.33;0.00;;;;;17.76;69.37;100722.66;4953242;28;45483;-58
2023/05/07 05:06:01;;;;;;;;;0.00;0.00;;;;;17.81;69.28;100734.78;4957440;28;45890;-58
2023/05/07 05:08:27;;;;;;;;;0.33;0.00;;;;;17.73;69.65;100726.38;4957617;28;45517;-58
2023/05/07 05:10:52;;;;;;;;;1.25;0.25;;;;;17.77;69.73;100729.69;4951959;28;54163;-58
2023/05/07 05:13:17;;;;;;;;;0.50;0.50;;;;;17.75;69.37;100728.94;4948309;28;45322;-58
2023/05/07 05:15:43;;;;;;;;;1.00;1.00;;;;;17.77;69.50;100735.88;4954397;28;45956;-58
2023/05/07 05:18:08;;;;;;;;;0.00;0.00;;;;;17.76;70.04;100738.63;4957322;28;45366;-58
2023/05/07 05:20:33;;;;;;;;;0.00;0.00;;;;;17.74;69.72;100736.06;4958041;28;45431;-58
2023/05/07 05:22:59;;;;;;;;;0.00;0.00;;;;;17.75;69.81;100743.09;4949546;28;45468;-58
2023/05/07 05:25:24;;;;;;;;;0.00;0.00;;;;;17.76;69.64;100749.25;4949765;28;56507;-58
2023/05/07 05:27:49;;;;;;;;;0.00;0.00;;;;;17.74;69.77;100745.88;4956875;28;45557;-58
2023/05/07 05:30:15;;;;;;;;;0.00;0.00;;;;;17.71;69.65;100752.22;4956690;28;45374;-58
2023/05/07 05:32:40;;;;;;;;;0.33;0.33;;;;;17.70;70.10;100739.84;4956312;28;57317;-58
2023/05/07 05:35:06;;;;;;;;;1.00;0.00;;;;;17.73;69.68;100754.78;4955731;28;47586;-58
2023/05/07 05:37:31;;;;;;;;;0.67;0.67;;;;;17.74;69.79;100756.50;4958127;28;45514;-58
2023/05/07 05:39:56;;;;;;;;;0.00;0.00;;;;;17.71;69.60;100752.22;4957290;28;45405;-57
2023/05/07 05:42:22;;;;;;;;;0.67;0.67;;;;;17.70;69.18;100758.47;4953665;28;45458;-58
2023/05/07 05:44:48;;;;;;;;;0.00;0.00;;;;;17.75;69.56;100756.38;4956357;28;45963;-58
2023/05/07 05:47:13;;;;;;;;;0.67;0.67;;;;;17.75;69.87;100766.19;4957526;28;45570;-58
2023/05/07 05:49:39;;;;;;;;;0.67;0.67;;;;;17.75;69.65;100763.53;4957283;28;45581;-58
2023/05/07 05:52:04;;;;;;;;;0.00;0.00;;;;;17.73;69.61;100760.09;4957901;28;45673;-58
2023/05/07 05:54:29;;;;;;;;;0.33;0.33;;;;;17.71;69.97;100765.53;4948393;28;46191;-57
2023/05/07 05:56:55;;;;;;;;;0.33;0.33;;;;;17.71;69.56;100762.88;4948007;28;55906;-58
2023/05/07 05:59:20;;;;;;;;;2.00;0.00;;;;;17.74;69.69;100773.31;4953933;28;45465;-58
2023/05/07 06:01:46;;;;;;;;;0.67;0.67;;;;;17.75;69.59;100772.34;4956619;28;45378;-58
2023/05/07 06:04:11;;;;;;;;;0.00;0.00;;;;;17.75;70.12;100769.69;4956566;28;45396;-58
2023/05/07 06:06:37;;;;;;;;;0.00;0.00;;;;;17.74;69.86;100775.97;4956695;28;60951;-58
2023/05/07 06:09:02;;;;;;;;;0.00;0.00;;;;;17.73;70.01;100763.63;4956878;28;45312;-57
2023/05/07 06:11:28;;;;;;;;;0.00;0.00;;;;;17.78;70.09;100780.13;4958439;28;45407;-58
2023/05/07 06:13:53;;;;;;;;;1.00;0.00;;;;;17.79;69.65;100773.91;4956780;28;45363;-57
2023/05/07 06:16:18;;;;;;;;;0.00;0.00;;;;;17.79;69.85;100773.91;4949512;28;53262;-57
2023/05/07 06:18:46;;;;;;;;;0.00;0.00;;;;;17.80;69.59;100778.28;4957503;28;49790;-58
2023/05/07 06:21:11;;;;;;;;;0.00;0.00;;;;;17.76;69.48;100779.41;4957354;28;45666;-58
2023/05/07 06:23:36;;;;;;;;;2.00;0.67;;;;;17.81;69.57;100787.09;4956513;28;55211;-58
2023/05/07 06:26:02;;;;;;;;;0.00;0.00;;;;;17.80;69.78;100788.91;4955193;28;48061;-58
2023/05/07 06:28:27;;;;;;;;;0.33;0.33;;;;;17.80;69.51;100786.25;4956567;28;45482;-58
2023/05/07 06:30:52;;;;;;;;;0.33;0.33;;;;;17.81;69.56;100782.66;4955647;28;45385;-58
2023/05/07 06:33:19;;;;;;;;;0.00;0.00;;;;;17.79;69.92;100781.91;4956816;28;45618;-58
2023/05/07 06:35:44;;;;;;;;;0.00;0.00;;;;;17.83;69.28;100780.72;4952701;28;45530;-60
2023/05/07 06:38:10;;;;;;;;;0.00;0.00;;;;;17.83;69.76;100780.72;4955414;28;45479;-59
2023/05/07 06:40:36;;;;;;;;;0.67;0.67;;;;;17.83;69.98;100786.06;4956575;28;45428;-59
2023/05/07 06:43:01;;;;;;;;;0.00;0.00;;;;;17.84;70.16;100784.28;4956209;28;47960;-59
2023/05/07 06:45:26;;;;;;;;;0.67;0.00;;;;;17.84;70.15;100787.78;4955213;28;45434;-59
2023/05/07 06:47:52;;;;;;;;;1.67;0.67;;;;;17.85;70.07;100788.63;4953430;28;45511;-59
2023/05/07 06:50:17;;;;;;;;;0.00;0.00;;;;;17.84;70.01;100786.94;4956173;28;45411;-65
2023/05/07 06:52:43;;;;;;;;;0.67;0.67;;;;;17.78;70.06;100780.13;4962711;28;46183;-65
2023/05/07 06:55:09;;;;;;;;;2.67;0.00;;;;;17.83;69.56;100796.69;4954703;28;45579;-64
2023/05/07 06:57:34;;;;;;;;;0.00;0.00;;;;;17.77;69.52;100788.22;4956732;28;45488;-62
2023/05/07 06:59:59;;;;;;;;;0.00;0.00;;;;;17.82;69.80;100802.97;4947575;28;45610;-56
2023/05/07 07:02:25;;;;;;;;;0.00;0.00;;;;;17.84;70.25;100797.56;4950158;28;48284;-55
2023/05/07 07:04:50;;;;;;;;;0.00;0.00;;;;;17.83;69.72;100801.16;4956233;28;45464;-57
2023/05/07 07:07:15;;;;;;;;;1.67;0.67;;;;;17.85;70.14;100799.28;4955957;28;45383;-58
2023/05/07 07:09:41;;;;;;;;;1.00;0.67;;;;;17.90;69.91;100801.66;4960913;28;45638;-59
2023/05/07 07:12:06;;;;;;;;;0.67;0.67;;;;;17.84;70.09;100801.09;4948588;28;45626;-61
2023/05/07 07:14:31;;;;;;;;;1.67;0.00;;;;;17.88;70.69;100815.03;4954751;28;45545;-58
2023/05/07 07:16:57;;;;;;;;;0.00;0.00;;;;;17.88;70.27;100818.56;4955011;28;45541;-57
2023/05/07 07:19:22;;;;;;;;;0.00;0.00;;;;;17.89;70.39;100819.41;4956293;28;45398;-57
2023/05/07 07:21:47;;;;;;;;;0.33;0.33;;;;;17.86;70.67;100815.13;4955676;28;46136;-58
2023/05/07 07:24:18;;;;;;;;;0.00;0.00;;;;;17.86;70.62;100809.81;4954413;28;45474;-60
2023/05/07 07:26:44;;;;;;;;;0.67;0.67;;;;;17.91;70.64;100811.34;4953927;28;45475;-59
2023/05/07 07:29:09;;;;;;;;;0.67;0.67;;;;;17.90;70.70;100820.28;4953466;28;45653;-59
2023/05/07 07:31:35;;;;;;;;;1.67;0.00;;;;;17.87;70.25;100824.00;4954879;28;62829;-58
2023/05/07 07:34:00;;;;;;;;;1.00;1.00;;;;;17.86;70.30;100825.78;4953852;28;45554;-60
2023/05/07 07:36:26;;;;;;;;;0.33;0.33;;;;;17.87;70.39;100830.16;4954454;28;45522;-60
2023/05/07 07:38:51;;;;;;;;;0.25;0.25;;;;;17.90;70.11;100834.44;4951950;28;45866;-61
2023/05/07 07:41:16;;;;;;;;;1.67;1.67;;;;;17.90;70.33;100837.09;4955100;28;47632;-60
2023/05/07 07:43:42;;;;;;;;;1.33;1.33;;;;;17.87;70.61;100837.28;4955622;28;52870;-59
2023/05/07 07:46:07;;;;;;;;;0.33;0.33;;;;;17.84;70.82;100833.03;4955300;28;45481;-58
2023/05/07 07:48:33;;;;;;;;;0.67;0.67;;;;;17.88;70.35;100839.00;4954698;28;45601;-60
2023/05/07 07:50:58;;;;;;;;;0.67;0.67;;;;;17.88;70.48;100828.34;4954253;28;45555;-61
2023/05/07 07:53:23;;;;;;;;;0.33;0.33;;;;;17.90;70.55;100837.09;4955602;28;45474;-60
2023/05/07 07:55:49;;;;;;;;;1.00;0.67;;;;;17.92;70.94;100837.00;4955076;28;45304;-61
2023/05/07 07:58:14;;;;;;;;;1.00;1.00;;;;;17.93;70.72;100831.59;4953491;28;46279;-61
2023/05/07 08:00:39;;;;;;;;;0.67;0.67;;;;;17.96;70.21;100842.03;4956703;28;46280;-60
2023/05/07 08:03:06;;;;;;;;;1.67;1.67;;;;;17.98;70.63;100840.13;4954797;28;45473;-60
2023/05/07 08:05:31;;;;;;;;;2.00;2.00;;;;;17.97;70.12;100846.41;4955579;28;45450;-60
2023/05/07 08:07:57;;;;;;;;;1.00;1.00;;;;;17.96;70.22;100842.03;4954980;28;45625;-59
2023/05/07 08:10:22;;;;;;;;;1.00;1.00;;;;;17.97;70.13;100838.41;4954804;28;45436;-60
2023/05/07 08:12:48;;;;;;;;;0.67;0.67;;;;;18.01;70.17;100845.25;4952914;28;47175;-60
2023/05/07 08:15:14;;;;;;;;;3.00;2.33;;;;;18.01;70.35;100849.75;4953840;28;45504;-60
2023/05/07 08:17:40;;;;;;;;;1.33;0.67;;;;;18.00;69.81;100846.22;4954958;28;45657;-59
2023/05/07 08:20:06;;;;;;;;;0.67;0.67;;;;;18.03;69.88;100862.00;4953867;28;46134;-59
2023/05/07 08:22:31;;;;;;;;;0.67;0.67;;;;;18.05;70.11;100859.22;4948304;28;45643;-57
2023/05/07 08:24:56;;;;;;;;;1.67;1.67;;;;;18.03;69.86;100867.31;4954388;28;45501;-55
2023/05/07 08:27:22;;;;;;;;;1.00;1.00;;;;;18.08;69.92;100865.22;4957639;28;45479;-59
2023/05/07 08:29:48;;;;;;;;;0.00;0.00;;;;;18.13;70.11;100872.06;4960348;28;46208;-57
2023/05/07 08:32:14;;;;;;;;;2.50;1.25;;;;;18.13;70.24;100869.41;4942369;28;45455;-57
2023/05/07 08:34:40;;;;;;;;;1.33;1.33;;;;;18.12;69.93;100870.34;4955567;28;45570;-57
2023/05/07 08:37:05;;;;;;;;;0.67;0.67;;;;;18.09;69.75;100874.06;4958447;28;45383;-57
2023/05/07 08:39:30;;;;;;;;;1.00;1.00;;;;;18.09;70.33;100869.59;4958044;28;51597;-57
2023/05/07 08:41:57;;;;;;;;;2.33;2.33;;;;;18.13;70.04;100870.25;4957428;28;51841;-57
2023/05/07 08:44:26;;;;;;;;;0.50;0.50;;;;;18.13;70.30;100875.56;4955449;28;45550;-56
2023/05/07 08:46:53;;;;;;;;;1.67;1.67;;;;;18.18;70.34;100876.13;4958342;28;45505;-57
2023/05/07 08:49:20;;;;;;;;;0.50;0.50;;;;;18.18;70.20;100873.47;4958367;28;46109;-58
2023/05/07 08:51:46;;;;;;;;;1.00;1.00;;;;;18.18;70.14;100880.63;4954633;28;45544;-57
2023/05/07 08:54:12;;;;;;;;;1.67;1.67;;;;;18.16;70.14;100870.09;4958243;28;45401;-57
2023/05/07 08:56:37;;;;;;;;;1.00;1.00;;;;;18.24;70.08;100881.09;4958247;28;45343;-55
2023/05/07 08:59:03;;;;;;;;;0.00;0.00;;;;;18.25;70.34;100880.13;4948065;28;47950;-57
2023/05/07 09:01:29;;;;;;;;;1.33;1.33;;;;;18.27;69.96;100886.22;4958188;28;45848;-57
2023/05/07 09:03:54;;;;;;;;;1.00;1.00;;;;;18.27;70.20;100878.25;4958249;28;45359;-57
2023/05/07 09:06:20;;;;;;;;;0.67;0.67;;;;;18.31;69.88;100884.22;4958501;28;45665;-57
2023/05/07 09:08:54;;;;;;;;;0.67;0.67;;;;;18.33;69.87;100877.84;4957910;28;45386;-58
2023/05/07 09:11:23;;;;;;;;;1.00;0.33;;;;;18.36;69.33;100884.78;4957349;28;45488;-57
2023/05/07 09:14:01;;;;;;;;;1.00;1.00;;;;;18.37;69.69;100885.63;4950377;28;45609;-60
2023/05/07 09:16:29;;;;;;;;;2.00;0.00;;;;;18.32;69.37;100873.47;4944684;28;45649;-60
2023/05/07 09:18:58;;;;;;;;;1.00;1.00;;;;;18.38;69.52;100880.22;4939431;28;45573;-62
2023/05/07 09:21:23;;;;;;;;;0.50;0.50;;;;;18.41;69.39;100888.03;4939428;28;45762;-60
2023/05/07 09:23:54;;;;;;;;;1.00;1.00;;;;;18.42;69.39;100875.56;4942665;28;45626;-60
2023/05/07 09:26:21;;;;;;;;;0.67;0.67;;;;;18.44;69.55;100874.50;4955302;28;45692;-61
2023/05/07 09:28:46;;;;;;;;;0.67;0.67;;;;;18.48;69.50;100878.69;4955197;28;45573;-61
2023/05/07 09:31:12;;;;;;;;;1.00;1.00;;;;;18.48;69.07;100881.34;4956981;28;45581;-58
2023/05/07 09:33:39;;;;;;;;;2.00;1.67;;;;;18.48;69.08;100880.47;4957275;28;45537;-59
2023/05/07 09:36:09;;;;;;;;;3.00;3.00;;;;;18.52;68.82;100884.66;4955335;28;45630;-59
2023/05/07 09:38:36;;;;;;;;;1.50;1.50;;;;;18.51;69.05;100886.47;4956768;28;46257;-57
2023/05/07 09:41:02;;;;;;;;;2.00;2.00;;;;;18.51;68.88;100883.81;4957574;28;45607;-58
2023/05/07 09:43:32;;;;;;;;;1.75;1.75;;;;;18.50;68.99;100876.75;4953191;28;45435;-58
2023/05/07 09:45:58;;;;;;;;;1.00;1.00;;;;;18.55;68.72;100887.97;4952063;28;45528;-56
2023/05/07 09:48:25;;;;;;;;;2.25;1.50;;;;;18.49;68.70;100867.06;4950318;28;46031;-58
2023/05/07 09:50:56;;;;;;;;;1.67;1.67;;;;;18.60;68.82;100885.03;4955142;28;45369;-60
2023/05/07 09:53:22;;;;;;;;;3.00;2.00;;;;;18.62;68.82;100883.13;4955076;28;45471;-60
2023/05/07 09:55:48;;;;;;;;;0.67;0.67;;;;;18.65;68.67;100884.75;4956745;28;45438;-59
2023/05/07 09:58:15;;;;;;;;;2.67;2.67;;;;;18.66;68.87;100881.13;4957348;28;46380;-60
2023/05/07 10:00:42;;;;;;;;;3.00;3.00;;;;;18.66;69.23;100879.28;4956937;28;45871;-59
2023/05/07 10:03:09;;;;;;;;;1.00;1.00;;;;;18.69;69.11;100884.41;4957333;28;45588;-60
2023/05/07 10:05:35;;;;;;;;;1.67;1.67;;;;;18.72;68.32;100884.22;4957245;28;45578;-60
2023/05/07 10:08:01;;;;;;;;;1.67;1.67;;;;;18.77;68.84;100881.28;4957015;28;46161;-59
2023/05/07 10:10:27;;;;;;;;;2.33;1.67;;;;;18.79;68.55;100883.88;4956998;28;45353;-59
2023/05/07 10:12:54;;;;;;;;;1.67;1.67;;;;;18.83;68.12;100890.69;4957836;28;45431;-60
2023/05/07 10:15:19;;;;;;;;;3.33;2.67;;;;;18.87;67.96;100895.75;4957174;28;45546;-60
2023/05/07 10:17:45;;;;;;;;;2.00;2.00;;;;;18.91;68.09;100893.72;4956728;28;46048;-59
2023/05/07 10:20:10;;;;;;;;;3.33;3.33;;;;;18.94;67.90;100882.84;4956165;28;45494;-60
2023/05/07 10:22:42;;;;;;;;;1.00;1.00;;;;;18.95;66.80;100887.25;4956800;28;45486;-59
2023/05/07 10:25:25;;;;;;;;;2.25;2.25;;;;;18.95;66.44;100884.56;4956560;28;45367;-58
2023/05/07 10:27:52;;;;;;;;;2.67;2.67;;;;;19.03;67.50;100892.06;4956298;28;46014;-60
2023/05/07 10:30:32;;;;;;;;;2.00;2.00;;;;;19.09;67.50;100891.66;4956123;28;45402;-58
2023/05/07 10:33:05;;;;;;;;;2.33;2.33;;;;;19.13;67.46;100886.03;4955288;28;45546;-60
2023/05/07 10:35:37;;;;;;;;;2.33;2.33;;;;;19.18;67.07;100886.59;4956973;28;45360;-60
2023/05/07 10:38:03;;;;;;;;;1.67;1.67;;;;;19.20;66.78;100883.78;4955758;28;46274;-59
2023/05/07 10:40:31;;;;;;;;;3.00;1.67;;;;;19.20;65.86;100889.97;4956585;28;45463;-60
2023/05/07 10:43:02;;;;;;;;;1.50;1.50;;;;;19.21;65.80;100893.53;4956859;28;45490;-61
2023/05/07 10:45:28;;;;;;;;;2.33;2.33;;;;;19.18;66.45;100891.91;4956614;28;45330;-60
2023/05/07 10:48:20;;;;;;;;;2.75;2.75;;;;;19.16;66.22;100888.50;4954368;28;47029;-60
2023/05/07 10:50:46;;;;;;;;;2.50;2.25;;;;;19.15;66.23;100892.09;4956309;28;45455;-61
2023/05/07 10:53:20;;;;;;;;;2.67;2.67;;;;;19.13;66.10;100896.69;4956630;28;45501;-62
2023/05/07 10:55:48;;;;;;;;;0.00;0.00;;;;;19.07;65.63;100899.75;4956418;28;45574;-59
2023/05/07 10:58:29;;;;;;;;;3.00;3.00;;;;;19.07;65.92;100898.91;4955097;28;47394;-61
2023/05/07 11:01:00;;;;;;;;;2.25;2.25;;;;;19.04;66.10;100885.78;4945046;28;45435;-60
2023/05/07 11:03:26;;;;;;;;;1.67;1.67;;;;;19.05;66.16;100891.03;4950546;28;45684;-60
2023/05/07 11:06:24;;;;;;;;;3.67;3.67;;;;;19.05;66.52;100896.34;4954445;28;45620;-59
2023/05/07 11:08:53;;;;;;;;;4.00;4.00;;;;;19.07;66.18;100902.41;4943276;28;45581;-59
2023/05/07 11:11:21;;;;;;;;;11.00;11.00;;;;;19.02;65.82;100899.22;4950060;28;45427;-59
2023/05/07 11:13:49;;;;;;;;;5.00;5.00;;;;;19.04;65.79;100896.44;4954822;28;45467;-58
2023/05/07 11:16:23;;;;;;;;;11.67;11.67;;;;;18.98;66.12;100887.03;4955060;28;45532;-59
2023/05/07 11:18:50;;;;;;;;;8.00;8.00;;;;;18.97;66.18;100904.00;4955861;28;45534;-59
2023/05/07 11:21:35;;;;;;;;;6.00;6.00;;;;;18.97;66.37;100906.66;4956129;28;45444;-59